首页
METAR-TAF:

METAR-TAF

机场 :

基蘇木, 肯尼亚

纬度: 00-06S, 经度: 034-45E, 海拔: 1157米

当前天气观测

该预报发布于2小时和4分钟前的02:00 UTC
静风
温度 21°C
湿度 88%
气压 1016 hPa
能见度10公里或以上
少量云层高于1800英尺, 积雨云.
多云层高于26000英尺

METAR: HKKI 220200Z 00000KT 9999 FEW018CB BKN260 21/19 Q1016

时间: 07:04 (04:04 UTC)

预报

该预报发布于5小时和4分钟前的23:00 UTC
预报有效从22日的 00点(UTC)到 22日的 24点(UTC)
风速5节,风向西转西北
能见度10公里或以上
少量云层高于2400英尺
成为
从 22日的 08点(UTC)到 22日的 11点(UTC)
风速10节,风向南转西南
能见度10公里或以上
少量云层高于2400英尺, 积雨云.
散云层高于2500英尺
成为
从 22日的 20点(UTC)到 22日的 23点(UTC)
风速5节,风向东转东北
能见度10公里或以上
1500米以下无云,无积雨云

TAF: HKKI 212300Z 2200/2224 30005KT 9999 FEW024 BECMG 2208/2211 21010KT 9999 FEW024CB SCT025 BECMG 2220/2223 06005KT CAVOK

超过4000个机场的气象观测和天气预报(METAR&TAF报告)。

可查询的气象台以黄色和红色小点在地图上表示。

将鼠标移到小点上方,可查看气象台名称。

然后点击查看天气观测和预报。

如需切换地图:点击带黑十字的绿色按钮放大地图;点击带横线的绿色按钮缩小地图;或者点击绿色箭头查看邻近地区的地图。


METAR-TAF: